createdAt,value
2022-08-07T00:02:39.860Z,92.10
2022-08-07T00:05:10.372Z,92.00
2022-08-07T00:07:40.822Z,92.00
2022-08-07T00:10:27.022Z,92.10
2022-08-07T00:13:03.103Z,92.10
2022-08-07T00:15:51.437Z,92.20
2022-08-07T00:18:25.137Z,92.30
2022-08-07T00:20:57.420Z,92.00
2022-08-07T00:23:31.702Z,92.30
2022-08-07T00:26:12.875Z,92.20
2022-08-07T00:28:46.030Z,92.20
2022-08-07T00:31:38.446Z,92.20
2022-08-07T00:34:11.409Z,92.20
2022-08-07T00:36:43.307Z,92.30
2022-08-07T00:39:16.460Z,92.00
2022-08-07T00:41:53.082Z,92.20
2022-08-07T00:44:23.498Z,92.50
2022-08-07T00:46:57.082Z,92.40
2022-08-07T00:50:21.413Z,92.40
2022-08-07T00:52:19.976Z,92.50
2022-08-07T00:54:53.605Z,92.50
2022-08-07T00:57:25.221Z,92.70
2022-08-07T00:59:55.638Z,92.80
2022-08-07T01:02:28.288Z,93.00
2022-08-07T01:05:00.036Z,93.10
2022-08-07T01:07:30.995Z,93.10
2022-08-07T01:10:07.210Z,93.30
2022-08-07T01:12:54.024Z,93.20
2022-08-07T01:15:35.918Z,93.30
2022-08-07T01:18:18.603Z,93.40
2022-08-07T01:21:05.047Z,93.40
2022-08-07T01:23:47.660Z,93.20
2022-08-07T01:26:20.678Z,93.40
2022-08-07T01:28:53.108Z,93.90
2022-08-07T01:31:37.824Z,94.00
2022-08-07T01:34:14.117Z,94.10
2022-08-07T01:36:52.562Z,94.20
2022-08-07T01:39:41.399Z,94.00
2022-08-07T01:42:57.333Z,94.20
2022-08-07T01:45:36.229Z,94.40
2022-08-07T01:48:17.736Z,94.50
2022-08-07T01:50:57.302Z,94.70
2022-08-07T01:54:12.660Z,94.70
2022-08-07T01:56:28.919Z,95.00
2022-08-07T01:59:04.770Z,95.30
2022-08-07T02:02:00.139Z,95.30
2022-08-07T02:04:55.766Z,95.30
2022-08-07T02:07:44.679Z,95.30
2022-08-07T02:10:26.970Z,95.70
2022-08-07T02:13:00.326Z,95.90
2022-08-07T02:15:38.364Z,96.00
2022-08-07T02:18:11.870Z,96.10
2022-08-07T02:20:43.577Z,96.40
2022-08-07T02:23:23.821Z,96.50
2022-08-07T02:26:31.202Z,96.50
2022-08-07T02:28:46.531Z,96.70
2022-08-07T02:31:29.065Z,96.80
2022-08-07T02:34:03.950Z,97.00
2022-08-07T02:36:46.002Z,97.10
2022-08-07T02:39:43.016Z,97.30
2022-08-07T02:42:14.867Z,97.50
2022-08-07T02:44:52.007Z,97.50
2022-08-07T02:47:23.939Z,97.70
2022-08-07T02:50:00.976Z,97.70
2022-08-07T02:52:40.045Z,97.80
2022-08-07T02:55:28.370Z,97.80
2022-08-07T02:58:12.737Z,98.00
2022-08-07T03:00:46.762Z,98.10
2022-08-07T03:03:22.736Z,98.40
2022-08-07T03:05:55.716Z,98.70
2022-08-07T03:08:29.187Z,98.80
2022-08-07T03:11:01.922Z,98.80
2022-08-07T03:13:49.788Z,98.90
2022-08-07T03:16:22.830Z,99.10
2022-08-07T03:18:57.387Z,99.30
2022-08-07T03:21:28.565Z,99.40
2022-08-07T03:24:20.115Z,99.60
2022-08-07T03:26:59.239Z,99.60
2022-08-07T03:29:44.667Z,99.50
2022-08-07T03:32:17.468Z,99.90
2022-08-07T03:35:00.951Z,99.90
2022-08-07T03:37:46.444Z,99.90
2022-08-07T03:40:31.093Z,99.90
2022-08-07T03:43:13.536Z,99.90
2022-08-07T03:45:49.211Z,99.90
2022-08-07T03:48:24.530Z,99.90
2022-08-07T03:50:58.086Z,99.90
2022-08-07T03:54:05.963Z,99.90
2022-08-07T03:56:33.245Z,99.90
2022-08-07T03:59:12.810Z,99.90
2022-08-07T04:01:47.868Z,99.90
2022-08-07T04:04:22.102Z,99.90
2022-08-07T04:06:56.451Z,99.90
2022-08-07T04:09:44.843Z,99.90
2022-08-07T04:12:23.693Z,99.90
2022-08-07T04:15:00.208Z,99.90
2022-08-07T04:18:31.190Z,99.90
2022-08-07T04:20:23.952Z,99.90
2022-08-07T04:23:01.362Z,99.90
2022-08-07T04:25:39.120Z,99.90
2022-08-07T04:28:13.296Z,99.90
2022-08-07T04:30:55.418Z,99.90
2022-08-07T04:33:35.250Z,99.90
2022-08-07T04:36:08.735Z,99.90
2022-08-07T04:38:40.092Z,99.90
2022-08-07T04:41:18.056Z,99.90
2022-08-07T04:44:12.588Z,99.90
2022-08-07T04:47:04.535Z,99.90
2022-08-07T04:50:03.716Z,99.90
2022-08-07T04:52:51.173Z,99.90
2022-08-07T04:58:12.384Z,99.90
2022-08-07T04:58:47.520Z,99.90
2022-08-07T05:01:23.086Z,99.90
2022-08-07T05:04:12.468Z,99.90
2022-08-07T05:06:59.901Z,99.90
2022-08-07T05:09:46.987Z,99.90
2022-08-07T05:12:30.446Z,99.90
2022-08-07T05:15:23.092Z,99.90
2022-08-07T05:18:06.190Z,99.40
2022-08-07T05:20:42.835Z,98.60
2022-08-07T05:23:19.657Z,97.80
2022-08-07T05:26:13.647Z,97.00
2022-08-07T05:28:46.632Z,96.50
2022-08-07T05:31:21.600Z,95.50
2022-08-07T05:34:04.283Z,94.70
2022-08-07T05:36:40.010Z,94.40
2022-08-07T05:40:05.078Z,93.60
2022-08-07T05:42:12.309Z,93.00
2022-08-07T05:44:46.641Z,91.90
2022-08-07T05:47:38.336Z,91.70
2022-08-07T05:50:25.584Z,91.20
2022-08-07T05:52:57.184Z,91.00
2022-08-07T05:56:03.452Z,91.00
2022-08-07T05:58:22.098Z,91.10
2022-08-07T06:01:10.634Z,90.90
2022-08-07T06:03:57.101Z,90.70
2022-08-07T06:06:34.713Z,91.10
2022-08-07T06:09:06.799Z,90.80
2022-08-07T06:11:41.753Z,90.80
2022-08-07T06:14:21.422Z,90.80
2022-08-07T06:17:02.325Z,91.00
2022-08-07T06:19:57.513Z,90.70
2022-08-07T06:22:38.488Z,91.80
2022-08-07T06:25:27.003Z,91.40
2022-08-07T06:28:07.454Z,92.00
2022-08-07T06:30:42.760Z,92.40
2022-08-07T06:33:22.660Z,92.40
2022-08-07T06:36:11.885Z,92.60
2022-08-07T06:38:59.545Z,92.70
2022-08-07T06:42:01.853Z,93.00
2022-08-07T06:44:54.177Z,93.20
2022-08-07T06:47:27.157Z,93.70
2022-08-07T06:50:01.184Z,93.50
2022-08-07T06:52:45.153Z,94.10
2022-08-07T06:55:53.870Z,94.00
2022-08-07T06:58:17.943Z,94.40
2022-08-07T07:01:10.098Z,94.70
2022-08-07T07:03:48.742Z,95.20
2022-08-07T07:06:26.682Z,95.60
2022-08-07T07:08:58.038Z,95.30
2022-08-07T07:12:08.310Z,95.80
2022-08-07T07:14:22.183Z,96.10
2022-08-07T07:16:54.377Z,95.70
2022-08-07T07:19:56.263Z,96.10
2022-08-07T07:22:36.161Z,96.50
2022-08-07T07:26:30.591Z,96.90
2022-08-07T07:28:42.611Z,97.50
2022-08-07T07:31:11.927Z,98.50
2022-08-07T07:33:56.939Z,98.20
2022-08-07T07:36:32.603Z,98.20
2022-08-07T07:39:04.488Z,97.80
2022-08-07T07:41:50.789Z,98.10
2022-08-07T07:44:28.878Z,97.90
2022-08-07T07:47:14.357Z,97.60
2022-08-07T07:50:34.008Z,97.10
2022-08-07T07:52:47.071Z,97.10
2022-08-07T07:55:20.868Z,97.10
2022-08-07T07:57:58.427Z,96.80
2022-08-07T08:00:34.357Z,96.60
2022-08-07T08:03:08.665Z,96.80
2022-08-07T08:05:53.714Z,97.10
2022-08-07T08:08:32.356Z,97.50
2022-08-07T08:11:09.225Z,97.50
2022-08-07T08:13:54.805Z,97.30
2022-08-07T08:16:31.113Z,97.30
2022-08-07T08:19:09.776Z,97.30
2022-08-07T08:22:11.952Z,97.60
2022-08-07T08:25:18.529Z,97.00
2022-08-07T08:28:03.594Z,97.20
2022-08-07T08:30:37.461Z,96.90
2022-08-07T08:33:16.933Z,97.00
2022-08-07T08:35:50.925Z,96.50
2022-08-07T08:38:29.882Z,96.40
2022-08-07T08:41:14.354Z,96.40
2022-08-07T08:43:59.298Z,95.20
2022-08-07T08:46:45.018Z,94.70
2022-08-07T08:50:04.666Z,92.80
2022-08-07T08:52:40.855Z,91.30
2022-08-07T08:55:55.284Z,90.40
2022-08-07T08:58:33.190Z,90.00
2022-08-07T09:01:18.641Z,90.30
2022-08-07T09:04:05.052Z,89.90
2022-08-07T09:06:54.702Z,89.70
2022-08-07T09:09:47.418Z,90.10
2022-08-07T09:12:37.579Z,89.30
2022-08-07T09:16:24.388Z,88.60
2022-08-07T09:18:37.532Z,90.20
2022-08-07T09:21:58.254Z,86.80
2022-08-07T09:24:58.447Z,86.10
2022-08-07T09:27:31.173Z,86.10
2022-08-07T09:30:11.074Z,85.70
2022-08-07T09:33:05.384Z,84.60
2022-08-07T09:36:04.083Z,86.70
2022-08-07T09:38:49.971Z,85.30
2022-08-07T09:41:36.170Z,86.00
2022-08-07T09:48:01.638Z,83.80
2022-08-07T09:50:52.463Z,82.60
2022-08-07T09:53:24.370Z,82.70
2022-08-07T09:56:37.227Z,82.90
2022-08-07T09:59:46.455Z,81.70
2022-08-07T10:02:58.314Z,81.40
2022-08-07T10:06:12.195Z,80.80
2022-08-07T10:09:42.790Z,81.20
2022-08-07T10:12:52.740Z,80.30
2022-08-07T10:15:44.662Z,76.80
2022-08-07T10:18:46.685Z,78.10
2022-08-07T10:22:12.020Z,78.70
2022-08-07T10:24:39.674Z,77.80
2022-08-07T10:27:45.929Z,77.90
2022-08-07T10:30:20.546Z,77.70
2022-08-07T10:34:06.603Z,76.50
2022-08-07T10:36:49.399Z,74.30
2022-08-07T10:39:42.258Z,74.80
2022-08-07T10:42:36.560Z,76.00
2022-08-07T10:45:45.137Z,77.50
2022-08-07T10:48:37.388Z,74.90
2022-08-07T10:51:57.560Z,73.70
2022-08-07T10:54:14.765Z,72.00
2022-08-07T10:57:10.638Z,74.30
2022-08-07T11:00:00.410Z,74.60
2022-08-07T11:02:39.953Z,74.40
2022-08-07T11:05:49.283Z,72.20
2022-08-07T11:08:33.750Z,71.50
2022-08-07T11:11:11.829Z,72.00
2022-08-07T11:14:45.086Z,72.50
2022-08-07T11:16:51.319Z,71.40
2022-08-07T11:19:32.345Z,71.20
2022-08-07T11:22:26.531Z,73.30
2022-08-07T11:25:09.401Z,72.60
2022-08-07T11:28:02.697Z,72.60
2022-08-07T11:30:43.857Z,72.10
2022-08-07T11:33:58.684Z,71.70
2022-08-07T11:36:30.857Z,71.20
2022-08-07T11:39:20.351Z,72.60
2022-08-07T11:42:03.355Z,72.10
2022-08-07T11:45:00.164Z,70.90
2022-08-07T11:47:56.450Z,72.70
2022-08-07T11:50:44.551Z,70.80
2022-08-07T11:53:43.006Z,69.80
2022-08-07T11:56:53.214Z,70.10
2022-08-07T12:00:12.270Z,71.50
2022-08-07T12:03:06.057Z,72.60
2022-08-07T12:05:49.509Z,71.10
2022-08-07T12:08:34.496Z,69.10
2022-08-07T12:11:21.488Z,68.60
2022-08-07T12:13:59.402Z,69.30
2022-08-07T12:16:33.837Z,69.20
2022-08-07T12:19:21.785Z,68.80
2022-08-07T12:22:38.759Z,69.10
2022-08-07T12:26:00.251Z,69.50
2022-08-07T12:28:13.024Z,68.70
2022-08-07T12:30:53.148Z,69.30
2022-08-07T12:33:31.043Z,69.30
2022-08-07T12:36:32.742Z,69.20
2022-08-07T12:39:09.489Z,70.50
2022-08-07T12:41:56.568Z,70.10
2022-08-07T12:44:30.424Z,70.80
2022-08-07T12:47:21.871Z,69.40
2022-08-07T12:50:33.843Z,69.40
2022-08-07T12:53:05.324Z,69.40
2022-08-07T12:56:02.626Z,67.90
2022-08-07T12:58:39.505Z,68.20
2022-08-07T13:01:32.045Z,68.10
2022-08-07T13:04:34.934Z,68.40
2022-08-07T13:08:12.983Z,68.50
2022-08-07T13:10:39.553Z,67.90
2022-08-07T13:13:48.459Z,68.40
2022-08-07T13:16:32.811Z,68.90
2022-08-07T13:19:45.666Z,68.90
2022-08-07T13:22:28.102Z,67.00
2022-08-07T13:25:06.050Z,68.90
2022-08-07T13:28:10.904Z,68.10
2022-08-07T13:30:41.318Z,67.20
2022-08-07T13:34:34.475Z,66.50
2022-08-07T13:36:26.138Z,66.80
2022-08-07T13:39:05.113Z,66.50
2022-08-07T13:41:47.523Z,66.30
2022-08-07T13:44:26.397Z,66.70
2022-08-07T13:47:01.062Z,67.20
2022-08-07T13:50:34.442Z,67.10
2022-08-07T13:52:36.324Z,66.50
2022-08-07T13:55:19.298Z,67.30
2022-08-07T13:58:28.061Z,66.70
2022-08-07T14:01:09.094Z,67.40
2022-08-07T14:04:06.929Z,67.80
2022-08-07T14:06:40.549Z,67.80
2022-08-07T14:10:14.995Z,66.80
2022-08-07T14:12:20.823Z,67.00
2022-08-07T14:15:05.308Z,65.90
2022-08-07T14:18:13.583Z,66.30
2022-08-07T14:20:42.100Z,66.10
2022-08-07T14:24:00.910Z,65.70
2022-08-07T14:26:27.993Z,65.70
2022-08-07T14:29:08.695Z,64.80
2022-08-07T14:31:43.116Z,64.40
2022-08-07T14:34:30.354Z,64.80
2022-08-07T14:37:03.181Z,64.60
2022-08-07T14:40:16.725Z,64.90
2022-08-07T14:42:31.446Z,64.50
2022-08-07T14:47:59.139Z,64.50
2022-08-07T14:50:37.609Z,65.30
2022-08-07T14:53:09.849Z,65.20
2022-08-07T14:58:36.846Z,65.10
2022-08-07T15:01:22.332Z,64.80
2022-08-07T15:03:53.929Z,65.10
2022-08-07T15:06:26.495Z,65.00
2022-08-07T15:08:56.501Z,64.90
2022-08-07T15:11:53.575Z,65.40
2022-08-07T15:14:30.532Z,65.80
2022-08-07T15:17:04.753Z,65.10
2022-08-07T15:22:53.645Z,64.80
2022-08-07T15:25:36.717Z,63.50
2022-08-07T15:28:35.178Z,64.30
2022-08-07T15:31:06.579Z,64.80
2022-08-07T15:33:37.117Z,64.50
2022-08-07T15:36:08.889Z,65.80
2022-08-07T15:42:46.802Z,63.50
2022-08-07T15:44:26.243Z,64.90
2022-08-07T15:47:08.596Z,65.00
2022-08-07T15:52:33.233Z,64.00
2022-08-07T15:55:11.389Z,63.70
2022-08-07T15:57:49.406Z,64.20
2022-08-07T16:00:31.713Z,64.80
2022-08-07T16:03:21.706Z,64.70
2022-08-07T16:06:04.288Z,64.60
2022-08-07T16:08:38.915Z,64.60
2022-08-07T16:11:28.824Z,64.60
2022-08-07T16:14:17.095Z,64.60
2022-08-07T16:17:00.272Z,64.80
2022-08-07T16:20:33.329Z,64.50
2022-08-07T16:23:52.900Z,64.50
2022-08-07T16:26:16.736Z,63.80
2022-08-07T16:30:07.832Z,63.90
2022-08-07T16:32:07.119Z,63.70
2022-08-07T16:35:57.062Z,64.00
2022-08-07T16:38:50.800Z,63.70
2022-08-07T16:41:48.718Z,63.40
2022-08-07T16:46:07.828Z,63.70
2022-08-07T16:48:28.616Z,63.80
2022-08-07T16:52:01.614Z,63.20
2022-08-07T16:54:32.610Z,63.60
2022-08-07T16:57:15.935Z,63.30
2022-08-07T17:00:15.531Z,62.40
2022-08-07T17:03:09.231Z,62.10
2022-08-07T17:06:26.623Z,62.40
2022-08-07T17:09:09.014Z,62.50
2022-08-07T17:12:05.268Z,61.90
2022-08-07T17:14:53.943Z,61.60
2022-08-07T17:17:46.612Z,61.70
2022-08-07T17:20:31.158Z,62.10
2022-08-07T17:23:13.110Z,61.80
2022-08-07T17:26:01.729Z,62.10
2022-08-07T17:28:38.787Z,62.40
2022-08-07T17:31:24.352Z,62.20
2022-08-07T17:34:32.656Z,62.20
2022-08-07T17:37:09.754Z,61.70
2022-08-07T17:40:09.042Z,61.70
2022-08-07T17:42:58.500Z,62.20
2022-08-07T17:45:35.192Z,61.60
2022-08-07T17:48:11.215Z,60.80
2022-08-07T17:51:00.086Z,60.50
2022-08-07T17:54:00.904Z,60.40
2022-08-07T17:56:36.240Z,60.40
2022-08-07T17:59:27.040Z,60.50
2022-08-07T18:02:12.816Z,60.30
2022-08-07T18:04:53.352Z,60.30
2022-08-07T18:07:48.122Z,60.70
2022-08-07T18:10:32.716Z,60.70
2022-08-07T18:13:15.307Z,60.70
2022-08-07T18:16:02.339Z,60.30
2022-08-07T18:21:01.225Z,60.30
2022-08-07T18:21:57.825Z,60.30
2022-08-07T18:24:33.813Z,60.70
2022-08-07T18:27:38.029Z,60.60
2022-08-07T18:30:31.156Z,60.50
2022-08-07T18:33:54.983Z,60.60
2022-08-07T18:36:41.545Z,60.60
2022-08-07T18:40:08.912Z,60.70
2022-08-07T18:42:27.803Z,60.80
2022-08-07T18:45:42.764Z,60.50
2022-08-07T18:48:09.988Z,60.80
2022-08-07T18:51:07.435Z,60.50
2022-08-07T18:53:54.214Z,60.60
2022-08-07T18:56:37.706Z,61.70
2022-08-07T18:59:47.781Z,62.10
2022-08-07T19:02:33.907Z,61.10
2022-08-07T19:05:26.694Z,61.20
2022-08-07T19:08:21.775Z,61.70
2022-08-07T19:11:00.731Z,61.90
2022-08-07T19:14:02.357Z,62.10
2022-08-07T19:17:06.895Z,64.10
2022-08-07T19:19:51.008Z,65.00
2022-08-07T19:22:31.259Z,65.80
2022-08-07T19:25:06.589Z,64.10
2022-08-07T19:28:56.736Z,66.00
2022-08-07T19:30:59.991Z,67.20
2022-08-07T19:33:35.061Z,66.40
2022-08-07T19:36:08.917Z,65.90
2022-08-07T19:38:53.138Z,66.30
2022-08-07T19:41:39.255Z,66.40
2022-08-07T19:44:21.599Z,67.00
2022-08-07T19:46:57.952Z,68.30
2022-08-07T19:49:57.233Z,68.60
2022-08-07T19:52:23.021Z,68.20
2022-08-07T19:54:56.228Z,68.20
2022-08-07T19:58:01.760Z,68.90
2022-08-07T20:00:30.288Z,69.60
2022-08-07T20:03:05.001Z,70.20
2022-08-07T20:06:01.189Z,70.30
2022-08-07T20:08:34.631Z,70.40
2022-08-07T20:11:09.989Z,70.20
2022-08-07T20:13:46.855Z,70.80
2022-08-07T20:16:35.670Z,71.00
2022-08-07T20:19:10.070Z,71.70
2022-08-07T20:21:47.160Z,72.10
2022-08-07T20:24:21.964Z,72.40
2022-08-07T20:26:55.845Z,72.00
2022-08-07T20:29:48.769Z,72.70
2022-08-07T20:32:25.785Z,72.70
2022-08-07T20:35:01.342Z,72.40
2022-08-07T20:37:55.748Z,72.40
2022-08-07T20:40:32.474Z,72.50
2022-08-07T20:43:09.532Z,72.80
2022-08-07T20:46:28.339Z,72.50
2022-08-07T20:48:58.183Z,72.90
2022-08-07T20:51:35.932Z,73.40
2022-08-07T20:54:12.125Z,74.30
2022-08-07T20:56:45.932Z,74.10
2022-08-07T20:59:27.147Z,74.10
2022-08-07T21:02:38.332Z,74.40
2022-08-07T21:05:16.586Z,74.90
2022-08-07T21:07:49.541Z,75.30
2022-08-07T21:10:25.263Z,75.20
2022-08-07T21:13:04.599Z,75.30
2022-08-07T21:15:58.374Z,75.40
2022-08-07T21:18:36.556Z,75.90
2022-08-07T21:21:11.472Z,75.40
2022-08-07T21:23:51.443Z,75.60
2022-08-07T21:26:34.738Z,75.90
2022-08-07T21:29:18.163Z,77.00
2022-08-07T21:32:43.906Z,76.70
2022-08-07T21:35:00.451Z,77.20
2022-08-07T21:37:58.210Z,77.40
2022-08-07T21:40:35.622Z,76.90
2022-08-07T21:43:11.069Z,77.50
2022-08-07T21:46:08.452Z,78.30
2022-08-07T21:48:56.796Z,78.10
2022-08-07T21:51:51.862Z,79.00
2022-08-07T21:54:48.251Z,79.40
2022-08-07T21:57:44.749Z,79.40
2022-08-07T22:00:25.882Z,79.50
2022-08-07T22:03:03.648Z,79.80
2022-08-07T22:05:48.448Z,80.30
2022-08-07T22:08:24.828Z,80.40
2022-08-07T22:11:01.830Z,80.90
2022-08-07T22:13:51.866Z,81.40
2022-08-07T22:16:44.473Z,80.60
2022-08-07T22:19:23.729Z,81.40
2022-08-07T22:22:21.376Z,81.20
2022-08-07T22:25:10.800Z,81.30
2022-08-07T22:28:07.391Z,81.50
2022-08-07T22:30:41.769Z,82.30
2022-08-07T22:33:15.118Z,82.10
2022-08-07T22:35:52.527Z,82.60
2022-08-07T22:38:37.810Z,83.00
2022-08-07T22:41:17.312Z,83.30
2022-08-07T22:43:56.044Z,83.40
2022-08-07T22:47:04.478Z,83.10
2022-08-07T22:50:05.289Z,83.40
2022-08-07T22:52:59.939Z,83.80
2022-08-07T22:55:59.559Z,83.80
2022-08-07T22:59:32.563Z,84.30
2022-08-07T23:02:32.529Z,84.10
2022-08-07T23:06:08.459Z,84.40
2022-08-07T23:08:58.627Z,84.10
2022-08-07T23:11:59.811Z,84.10
2022-08-07T23:14:48.485Z,84.90
2022-08-07T23:17:41.756Z,85.80
2022-08-07T23:20:51.675Z,85.80
2022-08-07T23:24:05.086Z,85.80
2022-08-07T23:26:55.008Z,86.20
2022-08-07T23:30:37.429Z,86.90
2022-08-07T23:34:33.727Z,87.20
2022-08-07T23:36:35.602Z,87.40
2022-08-07T23:39:14.382Z,88.20
2022-08-07T23:42:04.197Z,87.90
2022-08-07T23:45:15.505Z,87.60
2022-08-07T23:48:30.543Z,88.20
2022-08-07T23:51:04.774Z,88.60
2022-08-07T23:54:20.054Z,89.20
2022-08-07T23:57:14.033Z,89.80
